Time;durP1;ratioP1;P1;durP2;ratioP2;P2;SDS_P1;SDS_P2;PMS_P1;PMS_P2;Temp;Humidity;BMP_temperature;BMP_pressure;BME280_temperature;BME280_humidity;BME280_pressure;Samples;Min_cycle;Max_cycle;Signal;HPM_P1;HPM_P2
2023/05/17 00:00:50;;;;;;;4.93;1.83;;;3.90;99.90;4.70;94374.00;;;;7402991;19;20168;-75
2023/05/17 00:03:17;;;;;;;5.47;2.07;;;3.90;99.90;4.30;94331.00;;;;7400561;19;20196;-75
2023/05/17 00:05:52;;;;;;;5.10;1.50;;;4.00;99.90;4.60;94365.00;;;;7401812;19;20145;-75
2023/05/17 00:08:26;;;;;;;5.13;1.70;;;4.00;99.90;4.60;94353.00;;;;7401302;19;20140;-75
2023/05/17 00:11:00;;;;;;;4.67;1.70;;;3.90;99.90;4.50;94336.00;;;;7403208;19;20137;-74
2023/05/17 00:13:34;;;;;;;6.87;1.77;;;3.80;99.90;4.40;94394.00;;;;7403101;19;20137;-74
2023/05/17 00:16:08;;;;;;;10.67;2.20;;;3.80;99.90;4.30;94342.00;;;;7403885;19;20528;-74
2023/05/17 00:18:42;;;;;;;4.43;1.80;;;3.70;99.90;4.30;94346.00;;;;7401802;19;20516;-75
2023/05/17 00:21:16;;;;;;;4.20;1.80;;;3.80;99.90;4.30;94361.00;;;;7401988;19;20207;-77
2023/05/17 00:23:50;;;;;;;3.77;1.50;;;3.70;99.90;4.30;94359.00;;;;7401021;19;20477;-75
2023/05/17 00:26:24;;;;;;;7.83;1.80;;;3.70;99.90;4.30;94381.00;;;;7401047;19;20145;-74
2023/05/17 00:29:05;;;;;;;5.57;1.57;;;3.70;99.90;4.40;94313.00;;;;7400533;19;20136;-75
2023/05/17 00:31:39;;;;;;;7.20;1.93;;;3.70;99.90;3.90;94369.00;;;;7400690;19;20128;-74
2023/05/17 00:34:07;;;;;;;4.70;1.43;;;3.60;99.90;4.10;94400.00;;;;7400204;19;20135;-75
2023/05/17 00:36:41;;;;;;;5.63;1.97;;;3.50;1.00;4.00;94363.00;;;;7401779;19;20145;-76
2023/05/17 00:39:08;;;;;;;5.13;1.60;;;3.50;1.00;4.00;94344.00;;;;7402000;19;20144;-74
2023/05/17 00:41:42;;;;;;;3.03;1.70;;;3.50;1.00;4.10;94377.00;;;;7401126;19;20145;-74
2023/05/17 00:44:22;;;;;;;4.40;1.40;;;3.50;1.00;4.10;94383.00;;;;7400418;19;20129;-75
2023/05/17 00:46:58;;;;;;;4.47;1.60;;;3.50;1.00;4.10;94392.00;;;;7400389;19;20600;-74
2023/05/17 00:49:26;;;;;;;4.67;1.67;;;3.50;1.00;4.00;94351.00;;;;7400035;19;20608;-75
2023/05/17 00:52:00;;;;;;;3.03;1.53;;;3.40;1.00;4.10;94361.00;;;;7400780;19;20492;-75
2023/05/17 00:54:29;;;;;;;5.57;2.20;;;3.40;1.00;4.00;94356.00;;;;7399952;19;20624;-75
2023/05/17 00:57:04;;;;;;;4.43;1.50;;;3.40;1.00;3.90;94367.00;;;;7400736;19;20132;-74
2023/05/17 00:59:38;;;;;;;3.63;1.63;;;3.40;1.00;3.90;94384.00;;;;7400600;19;20143;-75
2023/05/17 01:02:12;;;;;;;4.83;1.63;;;3.40;1.00;4.10;94380.00;;;;7400098;19;20176;-75
2023/05/17 01:04:40;;;;;;;8.60;2.10;;;3.40;1.00;4.10;94371.00;;;;7400056;19;20137;-75
2023/05/17 01:07:16;;;;;;;5.40;1.70;;;3.40;1.00;3.90;94398.00;;;;7400239;19;20632;-75
2023/05/17 01:09:43;;;;;;;5.87;1.33;;;3.40;1.00;3.80;94331.00;;;;7398408;19;20144;-75
2023/05/17 01:13:04;;;;;;;8.23;1.90;;;3.30;1.00;3.80;94407.00;;;;7398622;19;20124;-75
2023/05/17 01:15:52;;;;;;;4.13;1.63;;;3.30;1.00;3.80;94411.00;;;;7401496;19;20471;-76
2023/05/17 01:19:00;;;;;;;4.63;1.90;;;3.20;1.00;3.90;94415.00;;;;7399792;19;20147;-76
2023/05/17 01:21:46;;;;;;;5.00;1.90;;;3.30;1.00;3.80;94413.00;;;;7399411;19;20137;-74
2023/05/17 01:24:54;;;;;;;6.77;1.90;;;3.30;1.00;3.70;94396.00;;;;7401507;19;20204;-74
2023/05/17 01:27:37;;;;;;;5.53;2.30;;;3.30;1.00;3.60;94422.00;;;;7398926;19;20510;-75
2023/05/17 01:30:14;;;;;;;7.63;2.00;;;3.20;1.00;3.80;94373.00;;;;7399481;19;20603;-74
2023/05/17 01:32:49;;;;;;;3.63;1.67;;;3.20;1.00;3.80;94346.00;;;;7401189;19;20132;-75
2023/05/17 01:35:16;;;;;;;4.83;2.00;;;3.20;1.00;3.70;94413.00;;;;7399639;19;20629;-76
2023/05/17 01:37:52;;;;;;;6.27;1.83;;;3.20;1.00;3.80;94425.00;;;;7400140;19;20172;-74
2023/05/17 01:40:26;;;;;;;6.23;1.83;;;3.20;74.60;3.70;94414.00;;;;7399728;19;20208;-74
2023/05/17 01:43:49;;;;;;;3.93;2.20;;;3.20;46.30;3.80;94422.00;;;;7400062;19;20617;-74
2023/05/17 01:46:41;;;;;;;4.37;1.83;;;3.20;46.30;3.90;94391.00;;;;7398211;19;20140;-77
2023/05/17 01:49:28;;;;;;;6.20;1.97;;;3.30;1.00;3.80;94395.00;;;;7399098;19;20443;-74
2023/05/17 01:52:17;;;;;;;5.53;2.40;;;3.30;1.00;3.90;94399.00;;;;7398774;19;20148;-73
2023/05/17 01:55:05;;;;;;;6.27;2.20;;;3.30;1.00;3.80;94432.00;;;;7398804;19;20220;-74
2023/05/17 01:57:43;;;;;;;4.00;1.63;;;3.40;1.00;3.90;94427.00;;;;7400135;19;20164;-73
2023/05/17 02:00:18;;;;;;;6.60;2.07;;;3.40;1.00;4.00;94429.00;;;;7399308;19;20603;-76
2023/05/17 02:02:52;;;;;;;2.93;2.00;;;3.40;1.00;3.90;94423.00;;;;7397600;19;20176;-74
2023/05/17 02:05:19;;;;;;;4.30;1.70;;;3.30;1.00;3.80;94397.00;;;;7398930;19;20460;-74
2023/05/17 02:07:53;;;;;;;4.47;1.90;;;3.40;1.00;3.90;94398.00;;;;7399143;19;20147;-74
2023/05/17 02:10:21;;;;;;;6.77;2.43;;;3.40;1.00;3.80;94419.00;;;;7397590;19;20141;-75
2023/05/17 02:12:55;;;;;;;6.17;1.80;;;3.40;1.00;3.80;94398.00;;;;7397727;19;20151;-73
2023/05/17 02:15:22;;;;;;;5.03;1.87;;;3.40;1.00;3.80;94425.00;;;;7398163;19;20144;-75
2023/05/17 02:17:56;;;;;;;4.67;1.87;;;3.40;1.00;3.80;94410.00;;;;7398295;19;20120;-76
2023/05/17 02:20:30;;;;;;;7.10;2.47;;;3.40;1.00;3.90;94428.00;;;;7398318;19;20140;-75
2023/05/17 02:22:57;;;;;;;6.07;1.93;;;3.40;1.00;3.80;94393.00;;;;7398328;19;20133;-76
2023/05/17 02:25:31;;;;;;;6.80;2.03;;;3.40;1.00;3.80;94435.00;;;;7399177;19;20189;-74
2023/05/17 02:28:11;;;;;;;5.73;1.80;;;3.30;1.00;3.80;94354.00;;;;7396212;19;20148;-75
2023/05/17 02:30:45;;;;;;;7.60;2.03;;;3.40;1.00;3.80;94387.00;;;;7397499;19;20136;-76
2023/05/17 02:33:12;;;;;;;4.87;2.07;;;3.30;1.00;3.80;94393.00;;;;7396773;19;20651;-74
2023/05/17 02:35:40;;;;;;;5.07;1.93;;;3.30;1.00;3.70;94390.00;;;;7399293;19;20132;-77
2023/05/17 02:38:14;;;;;;;7.03;2.13;;;3.30;1.00;3.60;94418.00;;;;7397377;19;20155;-75
2023/05/17 02:40:41;;;;;;;10.10;2.20;;;3.20;1.00;3.70;94405.00;;;;7396013;19;20144;-74
2023/05/17 02:43:15;;;;;;;9.93;2.10;;;3.20;46.70;3.80;94432.00;;;;7397165;19;20145;-76
2023/05/17 02:45:43;;;;;;;3.87;1.80;;;3.20;50.40;3.70;94446.00;;;;7398506;19;20133;-74
2023/05/17 02:48:17;;;;;;;3.90;1.90;;;3.10;30.90;3.70;94381.00;;;;7397059;19;20147;-75
2023/05/17 02:50:51;;;;;;;8.80;2.10;;;3.20;76.80;3.70;94441.00;;;;7395343;19;20502;-74
2023/05/17 02:53:25;;;;;;;5.60;2.00;;;3.20;97.50;3.70;94406.00;;;;7397434;19;20136;-75
2023/05/17 02:55:52;;;;;;;5.63;2.13;;;3.20;46.70;3.60;94396.00;;;;7397711;19;20208;-76
2023/05/17 02:58:26;;;;;;;5.57;2.00;;;3.20;46.30;3.60;94434.00;;;;7397831;19;20173;-76
2023/05/17 03:01:00;;;;;;;3.93;2.00;;;3.20;46.30;3.50;94420.00;;;;7397155;19;20149;-74
2023/05/17 03:03:34;;;;;;;3.43;1.80;;;3.20;46.30;3.50;94410.00;;;;7395134;19;20655;-74
2023/05/17 03:06:03;;;;;;;6.60;2.00;;;3.20;90.20;3.50;94403.00;;;;7396333;19;20169;-73
2023/05/17 03:08:37;;;;;;;3.93;2.10;;;3.10;99.90;3.40;94433.00;;;;7397305;19;20628;-75
2023/05/17 03:11:12;;;;;;;3.17;1.90;;;3.10;99.90;3.50;94445.00;;;;7395327;19;20180;-75
2023/05/17 03:13:50;;;;;;;6.47;1.90;;;3.00;99.90;3.40;94450.00;;;;7396636;19;20136;-75
2023/05/17 03:16:24;;;;;;;6.27;2.33;;;3.00;99.90;3.40;94407.00;;;;7395959;19;20159;-75
2023/05/17 03:18:51;;;;;;;3.90;2.00;;;3.00;99.90;3.40;94447.00;;;;7396570;19;20148;-75
2023/05/17 03:21:27;;;;;;;5.47;2.40;;;3.00;99.90;3.30;94451.00;;;;7397598;19;20140;-75
2023/05/17 03:23:54;;;;;;;7.27;2.43;;;2.90;99.90;3.20;94433.00;;;;7396205;19;20129;-75
2023/05/17 03:26:28;;;;;;;10.07;2.37;;;2.80;99.90;3.20;94427.00;;;;7397911;19;20133;-76
2023/05/17 03:29:02;;;;;;;4.43;2.20;;;2.80;1.00;3.30;94396.00;;;;7395026;19;20192;-74
2023/05/17 03:31:36;;;;;;;8.37;2.17;;;2.80;1.00;3.40;94433.00;;;;7394855;19;20148;-74
2023/05/17 03:34:05;;;;;;;8.47;2.60;;;2.80;1.00;3.30;94399.00;;;;7398750;19;20125;-75
2023/05/17 03:36:34;;;;;;;5.53;2.37;;;2.80;1.00;3.30;94420.00;;;;7404939;19;20121;-75
2023/05/17 03:39:08;;;;;;;5.77;2.50;;;2.80;1.00;3.30;94395.00;;;;7403276;19;20140;-75
2023/05/17 03:41:35;;;;;;;6.57;2.43;;;2.80;1.00;3.30;94411.00;;;;7404906;19;20155;-75
2023/05/17 03:44:09;;;;;;;11.07;2.83;;;2.80;1.00;3.40;94453.00;;;;7403334;19;20645;-74
2023/05/17 03:46:36;;;;;;;7.30;2.63;;;2.80;1.00;3.30;94456.00;;;;7402955;19;20165;-74
2023/05/17 03:49:03;;;;;;;6.00;2.37;;;2.90;1.00;3.30;94449.00;;;;7403350;19;20141;-74
2023/05/17 03:51:37;;;;;;;3.80;2.20;;;2.90;1.00;3.30;94403.00;;;;7402831;19;20157;-75
2023/05/17 03:54:05;;;;;;;5.37;2.50;;;2.90;1.00;3.30;94457.00;;;;7404496;19;20149;-75
2023/05/17 03:56:38;;;;;;;6.90;2.63;;;2.90;1.00;3.30;94477.00;;;;7402286;19;20145;-75
2023/05/17 03:59:05;;;;;;;7.93;2.67;;;2.90;1.00;3.40;94460.00;;;;7403727;19;20150;-75
2023/05/17 04:01:41;;;;;;;8.57;2.77;;;2.90;1.00;3.30;94436.00;;;;7401867;19;20153;-74
2023/05/17 04:04:09;;;;;;;11.67;2.77;;;2.90;1.00;3.30;94474.00;;;;7402533;19;20218;-75
2023/05/17 04:06:43;;;;;;;10.33;2.60;;;2.90;1.00;3.30;94424.00;;;;7402672;19;20132;-74
2023/05/17 04:09:12;;;;;;;5.83;2.47;;;2.90;1.00;3.30;94405.00;;;;7402358;19;20206;-75
2023/05/17 04:11:46;;;;;;;10.27;2.83;;;3.00;1.00;3.30;94452.00;;;;7399903;19;20614;-74
2023/05/17 04:14:13;;;;;;;4.07;2.70;;;3.00;1.00;3.50;94481.00;;;;7402314;19;20161;-75
2023/05/17 04:16:41;;;;;;;9.03;2.43;;;3.00;1.00;3.40;94463.00;;;;7403052;19;20604;-75
2023/05/17 04:19:14;;;;;;;6.83;2.50;;;3.10;1.00;3.70;94484.00;;;;7403997;19;20489;-74
2023/05/17 04:21:43;;;;;;;8.87;2.40;;;3.10;1.00;3.70;94397.00;;;;7403707;19;20212;-74
2023/05/17 04:24:16;;;;;;;8.07;2.57;;;3.20;1.00;3.90;94477.00;;;;7401743;19;20173;-75
2023/05/17 04:26:43;;;;;;;6.27;2.63;;;3.20;1.00;3.80;94502.00;;;;7401216;19;20151;-75
2023/05/17 04:29:24;;;;;;;4.00;2.20;;;3.20;1.00;4.00;94486.00;;;;7399137;19;21009;-76
2023/05/17 04:31:58;;;;;;;8.03;2.80;;;3.20;1.00;4.10;94491.00;;;;7401528;19;20497;-74
2023/05/17 04:34:32;;;;;;;9.10;2.80;;;3.30;1.00;4.10;94434.00;;;;7401681;19;20475;-76
2023/05/17 04:36:59;;;;;;;11.87;5.00;;;3.30;1.00;4.20;94494.00;;;;7402000;19;20536;-73
2023/05/17 04:39:33;;;;;;;9.90;3.17;;;3.40;1.00;4.20;94460.00;;;;7401679;19;20481;-75
2023/05/17 04:42:01;;;;;;;8.70;2.90;;;3.40;1.00;4.40;94473.00;;;;7400500;19;20148;-74
2023/05/17 04:44:34;;;;;;;5.43;2.47;;;3.50;99.90;4.50;94438.00;;;;7400460;19;20727;-76
2023/05/17 04:47:01;;;;;;;7.37;2.73;;;3.60;99.90;4.50;94464.00;;;;7399938;19;20148;-75
2023/05/17 04:49:36;;;;;;;7.20;2.80;;;3.60;99.90;4.80;94500.00;;;;7399951;19;20152;-75
2023/05/17 04:52:10;;;;;;;8.67;2.50;;;3.70;99.90;4.80;94494.00;;;;7400913;19;20592;-74
2023/05/17 04:54:44;;;;;;;5.37;2.40;;;3.80;99.90;5.00;94477.00;;;;7399847;19;20140;-75
2023/05/17 04:57:18;;;;;;;9.47;2.50;;;3.90;99.90;5.10;94514.00;;;;7401526;19;20143;-74
2023/05/17 04:59:52;;;;;;;14.73;3.13;;;4.00;47.20;5.30;94503.00;;;;7399930;19;20145;-75
2023/05/17 05:02:26;;;;;;;4.60;2.53;;;4.10;1.00;5.30;94505.00;;;;7386353;19;20250;-75
2023/05/17 05:05:00;;;;;;;6.83;2.77;;;4.30;1.00;5.40;94510.00;;;;7398557;19;20182;-76
2023/05/17 05:07:27;;;;;;;7.53;2.33;;;4.40;1.00;5.60;94510.00;;;;7399531;19;20175;-75
2023/05/17 05:10:01;;;;;;;5.47;2.70;;;4.50;1.00;5.60;94483.00;;;;7395163;19;20936;-75
2023/05/17 05:12:35;;;;;;;10.17;2.70;;;4.70;1.00;5.80;94508.00;;;;7395329;19;20484;-75
2023/05/17 05:15:02;;;;;;;6.57;2.50;;;4.80;99.90;5.60;94484.00;;;;7398330;19;20164;-75
2023/05/17 05:17:36;;;;;;;6.80;2.60;;;4.90;99.90;5.80;94521.00;;;;7400719;19;20133;-75
2023/05/17 05:20:04;;;;;;;6.57;2.90;;;5.10;99.90;6.00;94519.00;;;;7399091;19;20163;-75
2023/05/17 05:22:38;;;;;;;5.93;2.40;;;5.20;99.90;6.00;94482.00;;;;7399237;19;20168;-75
2023/05/17 05:25:06;;;;;;;7.17;2.50;;;5.20;99.90;6.00;94519.00;;;;7397764;19;20143;-75
2023/05/17 05:27:46;;;;;;;6.27;2.80;;;5.30;99.90;6.10;94532.00;;;;7398416;19;20160;-74
2023/05/17 05:30:22;;;;;;;6.63;2.50;;;5.30;99.90;6.20;94532.00;;;;7399981;19;20608;-74
2023/05/17 05:32:56;;;;;;;9.63;2.43;;;5.40;99.90;6.20;94522.00;;;;7400420;19;20599;-75
2023/05/17 05:35:30;;;;;;;7.60;2.87;;;5.50;91.70;6.40;94533.00;;;;7387179;19;20316;-74
2023/05/17 05:38:04;;;;;;;6.27;2.53;;;5.50;99.90;6.10;94537.00;;;;7377344;19;20890;-75
2023/05/17 05:40:38;;;;;;;9.97;2.97;;;5.60;14.70;6.40;94550.00;;;;7382448;19;20172;-75
2023/05/17 05:43:14;;;;;;;4.00;2.17;;;5.60;13.80;6.70;94553.00;;;;7382498;19;20499;-76
2023/05/17 05:45:48;;;;;;;4.07;2.67;;;5.70;39.30;6.80;94518.00;;;;7382843;19;20136;-74
2023/05/17 05:48:22;;;;;;;5.47;2.33;;;5.60;16.80;6.80;94554.00;;;;7382764;19;20155;-75
2023/05/17 05:50:49;;;;;;;6.33;2.50;;;5.70;1.00;6.80;94566.00;;;;7383820;19;20141;-74
2023/05/17 05:53:23;;;;;;;4.70;2.60;;;5.60;5.10;6.80;94557.00;;;;7382691;19;20488;-74
2023/05/17 05:55:57;;;;;;;12.63;2.67;;;5.70;62.30;6.70;94519.00;;;;7381525;19;20204;-74
2023/05/17 05:58:45;;;;;;;7.03;2.70;;;5.80;53.70;6.90;94527.00;;;;7385478;19;20136;-74
2023/05/17 06:01:20;;;;;;;7.27;2.77;;;5.80;17.50;7.20;94561.00;;;;7386489;19;21989;-74
2023/05/17 06:03:47;;;;;;;13.77;3.10;;;5.80;1.00;7.40;94518.00;;;;7384291;19;20180;-74
2023/05/17 06:06:21;;;;;;;8.30;3.00;;;5.90;1.00;7.80;94564.00;;;;7384404;19;23245;-74
2023/05/17 06:08:57;;;;;;;8.90;3.17;;;6.00;7.60;8.00;94540.00;;;;7386698;19;20475;-74
2023/05/17 06:11:32;;;;;;;12.30;3.07;;;6.20;1.00;8.30;94569.00;;;;7384876;19;20144;-74
2023/05/17 06:14:08;;;;;;;17.07;4.17;;;6.40;1.00;8.20;94537.00;;;;7384644;19;20159;-73
2023/05/17 06:16:42;;;;;;;8.23;2.77;;;6.70;1.00;8.50;94567.00;;;;7384397;19;20551;-74
2023/05/17 06:19:10;;;;;;;7.47;3.23;;;6.80;1.00;8.90;94570.00;;;;7385504;19;20470;-73
2023/05/17 06:21:45;;;;;;;7.20;2.60;;;7.20;1.00;9.10;94541.00;;;;7386567;19;20171;-74
2023/05/17 06:24:12;;;;;;;12.67;2.80;;;7.60;99.90;9.90;94572.00;;;;7384430;19;20167;-75
2023/05/17 06:26:46;;;;;;;5.68;2.65;;;7.90;99.90;10.20;94573.00;;;;7384809;19;20144;-73
2023/05/17 06:29:20;;;;;;;6.43;3.03;;;8.40;99.90;9.50;94587.00;;;;7383382;19;20175;-74
2023/05/17 06:31:56;;;;;;;8.35;3.15;;;8.30;99.90;9.20;94592.00;;;;7383386;19;20161;-75
2023/05/17 06:34:31;;;;;;;6.30;3.60;;;8.30;99.90;9.30;94600.00;;;;7384729;19;20463;-74
2023/05/17 06:37:05;;;;;;;4.15;2.45;;;8.20;99.90;9.20;94588.00;;;;7385012;19;20525;-74
2023/05/17 06:39:33;;;;;;;4.70;2.63;;;8.20;99.90;9.00;94592.00;;;;7382739;19;20148;-74
2023/05/17 06:42:11;;;;;;;5.72;2.97;;;8.20;99.90;9.50;94582.00;;;;7385542;19;20899;-73
2023/05/17 06:44:49;;;;;;;11.15;3.00;;;8.40;99.90;9.70;94582.00;;;;7385511;19;20203;-73
2023/05/17 06:47:18;;;;;;;3.88;2.72;;;8.40;99.90;9.40;94593.00;;;;7382829;19;20159;-74
2023/05/17 06:49:53;;;;;;;7.97;2.65;;;8.40;99.90;10.00;94572.00;;;;7383768;19;20640;-73
2023/05/17 06:52:21;;;;;;;7.90;3.00;;;8.60;99.90;10.00;94576.00;;;;7382597;19;20513;-73
2023/05/17 06:54:55;;;;;;;7.00;2.90;;;8.70;99.90;10.30;94573.00;;;;7384101;19;20152;-73
2023/05/17 06:57:23;;;;;;;7.18;2.92;;;8.70;99.90;10.00;94604.00;;;;7383169;19;20145;-74
2023/05/17 06:59:57;;;;;;;6.63;2.95;;;8.80;99.90;10.00;94612.00;;;;7384373;19;20180;-73
2023/05/17 07:02:25;;;;;;;5.90;3.10;;;8.80;99.90;9.80;94601.00;;;;7382201;19;20641;-74
2023/05/17 07:05:01;;;;;;;6.88;3.00;;;8.80;99.90;9.40;94589.00;;;;7383561;19;20473;-75
2023/05/17 07:07:36;;;;;;;6.05;2.88;;;8.80;99.90;9.30;94590.00;;;;7385357;19;20140;-74
2023/05/17 07:10:10;;;;;;;9.45;2.70;;;8.70;99.90;9.10;94612.00;;;;7388471;19;20136;-74
2023/05/17 07:12:44;;;;;;;6.68;2.83;;;8.70;99.90;8.90;94615.00;;;;7391470;19;20129;-74
2023/05/17 07:15:12;;;;;;;7.85;3.17;;;8.50;99.90;9.20;94596.00;;;;7390374;19;20149;-74
2023/05/17 07:17:46;;;;;;;9.68;3.13;;;8.40;99.90;8.90;94597.00;;;;7389664;19;20132;-75
2023/05/17 07:20:14;;;;;;;8.85;2.50;;;8.40;99.90;9.10;94571.00;;;;7389176;19;20549;-74
2023/05/17 07:22:49;;;;;;;8.73;4.07;;;8.50;99.90;9.20;94628.00;;;;7389904;19;20496;-74
2023/05/17 07:25:23;;;;;;;6.57;2.90;;;8.50;99.90;9.40;94599.00;;;;7390165;19;20122;-74
2023/05/17 07:28:11;;;;;;;5.15;2.80;;;8.60;99.90;8.90;94604.00;;;;7388318;19;20171;-73
2023/05/17 07:30:47;;;;;;;5.70;3.03;;;8.50;99.90;8.90;94605.00;;;;7389574;19;20164;-72
2023/05/17 07:33:21;;;;;;;7.18;2.80;;;8.50;99.90;9.20;94606.00;;;;7389409;19;20155;-72
2023/05/17 07:35:49;;;;;;;7.60;3.22;;;8.60;99.90;9.80;94590.00;;;;7389216;19;20125;-73
2023/05/17 07:38:24;;;;;;;8.18;3.08;;;8.60;99.90;10.00;94601.00;;;;7388362;19;20511;-73
2023/05/17 07:41:00;;;;;;;9.75;3.13;;;8.90;99.90;10.10;94633.00;;;;7391122;19;20459;-73
2023/05/17 07:43:38;;;;;;;9.05;3.55;;;9.00;99.90;10.20;94618.00;;;;7386518;19;20148;-75
2023/05/17 07:46:12;;;;;;;6.65;2.72;;;9.00;99.90;10.40;94618.00;;;;7390543;19;20140;-73
2023/05/17 07:48:39;;;;;;;6.70;3.28;;;9.30;77.70;10.70;94610.00;;;;7388519;19;20655;-73
2023/05/17 07:51:17;;;;;;;6.93;2.97;;;9.30;53.40;10.50;94598.00;;;;7390225;19;20160;-74
2023/05/17 07:53:45;;;;;;;8.35;3.55;;;9.40;91.10;10.40;94614.00;;;;7388686;19;20153;-74
2023/05/17 07:56:19;;;;;;;6.15;2.63;;;9.40;70.80;10.40;94631.00;;;;7388708;19;20143;-73
2023/05/17 07:58:46;;;;;;;6.00;3.10;;;9.40;60.30;9.40;94638.00;;;;7387831;19;20179;-73
2023/05/17 08:01:22;;;;;;;6.57;2.78;;;9.30;35.00;9.30;94638.00;;;;7389454;19;20140;-73
2023/05/17 08:03:56;;;;;;;6.50;2.88;;;9.10;37.10;9.60;94642.00;;;;7388702;19;20144;-74
2023/05/17 08:06:30;;;;;;;7.53;2.78;;;8.90;99.90;9.40;94604.00;;;;7389881;19;20128;-73
2023/05/17 08:09:04;;;;;;;4.55;2.85;;;8.80;99.90;9.70;94640.00;;;;7387785;19;20151;-73
2023/05/17 08:11:44;;;;;;;3.95;2.90;;;8.90;83.70;9.60;94633.00;;;;7386255;19;20245;-73
2023/05/17 08:14:23;;;;;;;5.85;2.80;;;8.80;99.90;9.70;94637.00;;;;7387653;19;20185;-73
2023/05/17 08:16:57;;;;;;;5.65;2.90;;;8.90;97.30;9.80;94649.00;;;;7388181;19;20153;-72
2023/05/17 08:19:25;;;;;;;9.15;2.95;;;8.90;99.90;9.40;94647.00;;;;7387947;19;20608;-74
2023/05/17 08:21:59;;;;;;;9.38;3.65;;;8.70;99.90;9.20;94636.00;;;;7386778;19;20179;-73
2023/05/17 08:24:27;;;;;;;6.78;2.97;;;8.50;99.90;8.30;94647.00;;;;7386903;19;20664;-73
2023/05/17 08:27:02;;;;;;;6.93;2.90;;;8.30;99.90;8.60;94645.00;;;;7387172;19;20136;-74
2023/05/17 08:29:37;;;;;;;10.03;3.37;;;8.10;99.90;8.90;94625.00;;;;7387863;19;20179;-74
2023/05/17 08:32:12;;;;;;;5.55;2.95;;;8.10;99.90;8.70;94635.00;;;;7387384;19;20203;-73
2023/05/17 08:34:39;;;;;;;6.30;2.42;;;8.10;99.90;9.20;94614.00;;;;7389905;19;20128;-74
2023/05/17 08:37:13;;;;;;;6.85;3.13;;;8.10;99.90;9.00;94638.00;;;;7387489;19;20288;-74
2023/05/17 08:39:41;;;;;;;8.98;3.17;;;8.20;99.90;9.30;94633.00;;;;7388295;19;20137;-73
2023/05/17 08:42:09;;;;;;;7.32;3.28;;;8.50;99.90;11.10;94580.00;;;;7387504;19;20161;-74
2023/05/17 08:44:44;;;;;;;6.47;2.75;;;9.10;1.00;12.60;94570.00;;;;7389329;19;20140;-76
2023/05/17 08:47:13;;;;;;;4.47;2.80;;;10.10;1.00;13.80;94610.00;;;;7386646;19;20225;-74
2023/05/17 08:49:47;;;;;;;4.97;2.80;;;10.90;99.90;13.50;94588.00;;;;7387350;19;20162;-74
2023/05/17 08:52:15;;;;;;;8.05;2.95;;;11.20;99.90;13.30;94566.00;;;;7387643;19;20488;-74
2023/05/17 08:54:49;;;;;;;4.88;2.53;;;11.50;99.90;13.20;94619.00;;;;7385951;19;20152;-73
2023/05/17 08:57:17;;;;;;;4.95;2.55;;;11.60;99.90;12.00;94614.00;;;;7388106;19;20473;-73
2023/05/17 08:59:52;;;;;;;4.57;2.85;;;11.30;99.90;11.60;94587.00;;;;7387133;19;20175;-73
2023/05/17 09:02:22;;;;;;;5.35;3.00;;;10.90;99.90;12.10;94618.00;;;;7387183;19;20191;-72
2023/05/17 09:04:56;;;;;;;6.80;3.03;;;11.10;99.90;13.30;94615.00;;;;7387316;19;20525;-73
2023/05/17 09:07:30;;;;;;;11.00;3.00;;;11.50;99.90;11.70;94605.00;;;;7387501;19;20159;-74
2023/05/17 09:10:05;;;;;;;8.13;3.13;;;11.70;99.90;12.10;94639.00;;;;7388133;19;20513;-73
2023/05/17 09:12:34;;;;;;;7.75;3.20;;;11.70;99.90;11.70;94615.00;;;;7387149;19;20154;-73
2023/05/17 09:15:15;;;;;;;5.53;2.67;;;11.20;86.80;11.20;94649.00;;;;7384800;19;20159;-72
2023/05/17 09:17:55;;;;;;;8.52;2.72;;;10.60;85.90;10.70;94651.00;;;;7387218;19;20172;-76
2023/05/17 09:20:33;;;;;;;5.53;2.70;;;10.20;79.80;10.80;94633.00;;;;7387203;19;20781;-73
2023/05/17 09:23:12;;;;;;;5.82;2.75;;;10.00;94.80;11.20;94631.00;;;;7386941;19;20140;-73
2023/05/17 09:25:48;;;;;;;8.00;2.92;;;10.00;99.90;11.20;94628.00;;;;7385913;19;20145;-72
2023/05/17 09:28:29;;;;;;;7.95;3.33;;;10.10;93.10;11.30;94616.00;;;;7386083;19;20598;-72
2023/05/17 09:31:06;;;;;;;4.00;2.70;;;10.30;71.40;11.90;94616.00;;;;7384500;19;20144;-73
2023/05/17 09:33:48;;;;;;;5.60;2.85;;;10.50;91.10;12.30;94632.00;;;;7385061;19;20148;-73
2023/05/17 09:36:22;;;;;;;5.97;3.05;;;10.90;65.70;12.00;94646.00;;;;7385271;19;20148;-73
2023/05/17 09:39:04;;;;;;;5.45;2.83;;;10.90;78.90;10.90;94645.00;;;;7386350;19;20124;-72
2023/05/17 09:41:46;;;;;;;5.20;2.72;;;10.70;56.80;10.80;94644.00;;;;7386011;19;20152;-73
2023/05/17 09:44:21;;;;;;;12.27;3.03;;;10.50;72.60;11.20;94651.00;;;;7385252;19;20129;-74
2023/05/17 09:46:58;;;;;;;8.07;2.90;;;10.40;99.90;10.70;94652.00;;;;7386280;19;20132;-73
2023/05/17 09:49:32;;;;;;;7.25;2.92;;;10.20;81.80;10.60;94643.00;;;;7385721;19;20148;-73
2023/05/17 09:52:05;;;;;;;7.68;3.00;;;10.00;64.70;11.10;94630.00;;;;7385468;19;20153;-73
2023/05/17 09:54:40;;;;;;;7.07;2.88;;;10.10;85.30;11.20;94654.00;;;;7384532;19;20141;-74
2023/05/17 09:57:09;;;;;;;6.05;2.92;;;10.20;99.90;11.70;94643.00;;;;7385269;19;20170;-73
2023/05/17 09:59:45;;;;;;;6.50;3.00;;;10.50;99.90;11.40;94646.00;;;;7385319;19;20136;-73
2023/05/17 10:02:27;;;;;;;7.60;3.10;;;10.80;99.90;11.70;94650.00;;;;7384312;19;20204;-74
2023/05/17 10:05:06;;;;;;;4.95;3.10;;;10.80;99.90;11.90;94605.00;;;;7386700;19;20145;-72
2023/05/17 10:07:41;;;;;;;6.40;2.83;;;10.90;99.90;11.60;94641.00;;;;7385508;19;20155;-73
2023/05/17 10:10:16;;;;;;;6.15;2.80;;;11.00;78.40;11.60;94627.00;;;;7384493;19;20498;-73
2023/05/17 10:12:52;;;;;;;8.80;3.15;;;10.90;57.70;11.50;94661.00;;;;7387159;19;20129;-74
2023/05/17 10:15:21;;;;;;;5.43;2.90;;;11.10;99.90;11.80;94638.00;;;;7384344;19;20136;-74
2023/05/17 10:17:58;;;;;;;7.07;2.85;;;11.30;99.90;12.00;94655.00;;;;7385421;19;20140;-73
2023/05/17 10:20:27;;;;;;;8.73;3.30;;;11.40;99.90;12.20;94658.00;;;;7386221;19;20189;-74
2023/05/17 10:23:05;;;;;;;5.65;3.33;;;11.60;99.90;12.10;94635.00;;;;7385243;19;20500;-74
2023/05/17 10:25:38;;;;;;;8.48;3.20;;;11.60;94.10;12.10;94642.00;;;;7384772;19;20150;-74
2023/05/17 10:28:27;;;;;;;8.80;3.47;;;11.60;99.90;12.30;94647.00;;;;7384314;19;20200;-74
2023/05/17 10:31:03;;;;;;;9.27;3.65;;;11.30;59.40;11.80;94642.00;;;;7383055;19;20144;-73
2023/05/17 10:33:38;;;;;;;6.50;3.90;;;11.00;59.00;12.10;94643.00;;;;7384396;19;20140;-71
2023/05/17 10:36:17;;;;;;;6.28;3.50;;;11.30;52.90;12.40;94642.00;;;;7385006;19;20249;-73
2023/05/17 10:38:46;;;;;;;7.72;3.70;;;11.50;60.50;12.50;94643.00;;;;7385162;19;20166;-72
2023/05/17 10:41:31;;;;;;;10.25;3.90;;;11.40;18.80;13.10;94641.00;;;;7384353;19;20149;-73
2023/05/17 10:44:20;;;;;;;9.00;4.13;;;11.90;27.20;13.80;94637.00;;;;7389860;19;20160;-74
2023/05/17 10:47:01;;;;;;;7.90;3.75;;;12.30;1.00;13.50;94635.00;;;;7391053;19;20191;-73
2023/05/17 10:49:41;;;;;;;8.93;3.35;;;12.70;1.00;13.60;94633.00;;;;7391131;19;20176;-73
2023/05/17 10:52:17;;;;;;;8.85;3.83;;;12.50;1.00;13.80;94650.00;;;;7389636;19;20612;-74
2023/05/17 10:54:51;;;;;;;7.57;3.45;;;12.60;1.00;13.50;94647.00;;;;7391600;19;20136;-71
2023/05/17 10:57:37;;;;;;;5.72;3.10;;;12.60;1.00;13.50;94641.00;;;;7391379;19;20131;-74
2023/05/17 11:00:26;;;;;;;7.43;3.88;;;12.60;1.00;13.20;94649.00;;;;7389950;19;20153;-73
2023/05/17 11:03:20;;;;;;;7.80;3.35;;;12.50;1.00;12.50;94673.00;;;;7391456;19;20156;-74
2023/05/17 11:06:19;;;;;;;7.53;3.65;;;12.30;1.00;12.30;94660.00;;;;7388768;19;20129;-75
2023/05/17 11:09:15;;;;;;;6.47;3.50;;;11.90;1.00;12.60;94631.00;;;;7388835;19;20156;-73
2023/05/17 11:12:08;;;;;;;8.55;3.70;;;11.90;1.00;12.90;94641.00;;;;7388755;19;20160;-73
2023/05/17 11:14:52;;;;;;;10.38;3.92;;;11.90;1.00;12.10;94658.00;;;;7389409;19;20149;-74
2023/05/17 11:17:55;;;;;;;5.50;3.50;;;11.80;1.00;12.30;94674.00;;;;7389338;19;20152;-73
2023/05/17 11:20:33;;;;;;;8.85;3.30;;;11.70;1.00;12.10;94656.00;;;;7389522;19;20171;-73
2023/05/17 11:23:23;;;;;;;5.93;3.58;;;11.70;1.00;11.80;94676.00;;;;7389454;19;20156;-74
2023/05/17 11:25:51;;;;;;;8.43;3.90;;;11.30;1.00;11.70;94670.00;;;;7389261;19;20176;-73
2023/05/17 11:28:34;;;;;;;7.13;3.45;;;11.20;1.00;11.50;94670.00;;;;7389239;19;20180;-74
2023/05/17 11:31:16;;;;;;;6.15;3.58;;;11.20;1.00;11.90;94660.00;;;;7389103;19;20124;-74
2023/05/17 11:33:53;;;;;;;7.18;3.38;;;10.90;6.80;12.00;94656.00;;;;7388625;19;20158;-74
2023/05/17 11:36:22;;;;;;;8.07;3.90;;;11.00;55.70;12.50;94657.00;;;;7389275;19;20129;-72
2023/05/17 11:39:14;;;;;;;6.20;3.40;;;11.30;1.00;12.50;94646.00;;;;7389267;19;20164;-73
2023/05/17 11:41:51;;;;;;;8.73;3.47;;;11.40;1.00;11.70;94641.00;;;;7389697;19;20125;-74